This is the latest recevied weather packets stored in our database for station/object DG8SBT-10. If no packets are shown the sender has not sent any weather packets the latest 10 day(s).
| Time | Temp. | Humidity | Pressure | Rain* | Wind** | Luminosity | Snow |
|---|---|---|---|---|---|---|---|
| 1788473966 | 24.44° C | 45% | 1023.1 hPa | - | - | - | - |
| 1788473065 | 25° C | 43% | 1023.2 hPa | - | - | - | - |
| 1788472165 | 25° C | 43% | 1023.1 hPa | - | - | - | - |
| 1788471265 | 25.56° C | 42% | 1023 hPa | - | - | - | - |
| 1788470365 | 25.56° C | 42% | 1023 hPa | - | - | - | - |
| 1788469464 | 25.56° C | 42% | 1023.2 hPa | - | - | - | - |
| 1788468565 | 26.11° C | 40% | 1023.1 hPa | - | - | - | - |
| 1788467664 | 26.67° C | 39% | 1023.1 hPa | - | - | - | - |
| 1788466764 | 25.56° C | 40% | 1022.9 hPa | - | - | - | - |
| 1788465864 | 25.56° C | 40% | 1023 hPa | - | - | - | - |
| 1788448762 | 28.89° C | 34% | 1022.4 hPa | - | - | - | - |
| 1788447862 | 28.33° C | 34% | 1022.4 hPa | - | - | - | - |
| 1788445162 | 28.89° C | 34% | 1022.3 hPa | - | - | - | - |
| 1788443362 | 28.89° C | 34% | 1022.5 hPa | - | - | - | - |
| 1788442462 | 28.33° C | 34% | 1022.6 hPa | - | - | - | - |
| 1788441562 | 28.89° C | 35% | 1022.8 hPa | - | - | - | - |
| 1788440662 | 28.33° C | 35% | 1022.9 hPa | - | - | - | - |
| 1788439761 | 27.78° C | 36% | 1022.9 hPa | - | - | - | - |
| 1788437961 | 27.78° C | 36% | 1023.1 hPa | - | - | - | - |
| 1788437061 | 27.22° C | 36% | 1023.1 hPa | - | - | - | - |
| 1788435261 | 27.22° C | 37% | 1023.4 hPa | - | - | - | - |
| 1788434361 | 28.33° C | 35% | 1023.5 hPa | - | - | - | - |
| 1788433461 | 27.78° C | 37% | 1023.7 hPa | - | - | - | - |
| 1788431660 | 26.67° C | 38% | 1023.8 hPa | - | - | - | - |
| 1788430760 | 27.22° C | 38% | 1024 hPa | - | - | - | - |
* Rain since midnight (hover to see other rain measurements)
** Current wind speed in m/s (hover to see current wind gust speed)